Arrowsmith, Illinois
Current Conditions -  °F | °C
As of 8:03 AM on Friday 31 Oct 2014 (Local Time) from KBMI Reporting Station
Broken Clouds Broken Clouds  
Wind Chill: 24°   Ceiling: 6000
Heat Index: 36°   Visibility: 10mi
Dew Point: 25°   Wind: 23mph
Humidity: 65%   Direction: 330°NNW
Pressure: 30.17"   Gusts: NA
Location:  40.45°N, 88.63°W
Report Text: KBMI 311303Z 33020KT 10SM BKN060 02/M04 A3017 RMK AO2
Loading
Personal Weather Stations






























Interactive Weather Map
Tropical Storm Tracking
New forecast layout! Learn more

10-Day Weather Forecast

Advertisements
Track Severe Weather on mobile